sensor_id;sensor_type;location;lat;lon;timestamp;temperature;humidity
58933;DHT22;44716;51.022;6.818;2024-03-25T00:01:53;21.20;58.10
58933;DHT22;44716;51.022;6.818;2024-03-25T00:04:19;21.20;58.10
58933;DHT22;44716;51.022;6.818;2024-03-25T00:06:46;21.10;58.20
58933;DHT22;44716;51.022;6.818;2024-03-25T00:09:11;21.10;58.20
58933;DHT22;44716;51.022;6.818;2024-03-25T00:11:42;21.10;58.30
58933;DHT22;44716;51.022;6.818;2024-03-25T00:14:07;21.10;58.30
58933;DHT22;44716;51.022;6.818;2024-03-25T00:16:33;21.10;58.40
58933;DHT22;44716;51.022;6.818;2024-03-25T00:18:59;21.10;58.30
58933;DHT22;44716;51.022;6.818;2024-03-25T00:21:24;21.00;58.40
58933;DHT22;44716;51.022;6.818;2024-03-25T00:23:50;21.00;58.50
58933;DHT22;44716;51.022;6.818;2024-03-25T00:26:15;21.00;58.50
58933;DHT22;44716;51.022;6.818;2024-03-25T00:28:41;21.00;58.70
58933;DHT22;44716;51.022;6.818;2024-03-25T00:31:06;21.00;58.60
58933;DHT22;44716;51.022;6.818;2024-03-25T00:33:32;21.00;58.70
58933;DHT22;44716;51.022;6.818;2024-03-25T00:35:58;20.90;58.60
58933;DHT22;44716;51.022;6.818;2024-03-25T00:38:24;20.90;58.70
58933;DHT22;44716;51.022;6.818;2024-03-25T00:40:50;20.90;58.80
58933;DHT22;44716;51.022;6.818;2024-03-25T00:43:15;20.90;58.70
58933;DHT22;44716;51.022;6.818;2024-03-25T00:45:41;20.90;58.80
58933;DHT22;44716;51.022;6.818;2024-03-25T00:48:07;20.90;58.80
58933;DHT22;44716;51.022;6.818;2024-03-25T00:50:32;20.90;58.90
58933;DHT22;44716;51.022;6.818;2024-03-25T00:52:58;20.90;58.80
58933;DHT22;44716;51.022;6.818;2024-03-25T00:55:23;20.90;58.90
58933;DHT22;44716;51.022;6.818;2024-03-25T00:57:50;20.90;58.90
58933;DHT22;44716;51.022;6.818;2024-03-25T01:00:15;20.90;58.80
58933;DHT22;44716;51.022;6.818;2024-03-25T01:02:41;20.90;58.80
58933;DHT22;44716;51.022;6.818;2024-03-25T01:05:07;20.80;58.90
58933;DHT22;44716;51.022;6.818;2024-03-25T01:07:32;20.80;58.90
58933;DHT22;44716;51.022;6.818;2024-03-25T01:09:58;20.90;58.90
58933;DHT22;44716;51.022;6.818;2024-03-25T01:12:24;20.80;58.90
58933;DHT22;44716;51.022;6.818;2024-03-25T01:14:50;20.80;58.90
58933;DHT22;44716;51.022;6.818;2024-03-25T01:17:15;20.80;58.80
58933;DHT22;44716;51.022;6.818;2024-03-25T01:19:41;20.80;58.90
58933;DHT22;44716;51.022;6.818;2024-03-25T01:22:06;20.80;58.90
58933;DHT22;44716;51.022;6.818;2024-03-25T01:24:32;20.80;59.00
58933;DHT22;44716;51.022;6.818;2024-03-25T01:26:57;20.80;59.00
58933;DHT22;44716;51.022;6.818;2024-03-25T01:29:23;20.70;59.00
58933;DHT22;44716;51.022;6.818;2024-03-25T01:31:48;20.70;59.10
58933;DHT22;44716;51.022;6.818;2024-03-25T01:34:14;20.70;59.00
58933;DHT22;44716;51.022;6.818;2024-03-25T01:36:39;20.70;59.00
58933;DHT22;44716;51.022;6.818;2024-03-25T01:39:05;20.70;58.90
58933;DHT22;44716;51.022;6.818;2024-03-25T01:41:30;20.70;59.00
58933;DHT22;44716;51.022;6.818;2024-03-25T01:43:56;20.60;59.00
58933;DHT22;44716;51.022;6.818;2024-03-25T01:46:21;20.60;59.10
58933;DHT22;44716;51.022;6.818;2024-03-25T01:48:48;20.60;59.10
58933;DHT22;44716;51.022;6.818;2024-03-25T01:51:16;20.60;59.10
58933;DHT22;44716;51.022;6.818;2024-03-25T01:53:42;20.60;59.10
58933;DHT22;44716;51.022;6.818;2024-03-25T01:56:07;20.60;59.10
58933;DHT22;44716;51.022;6.818;2024-03-25T01:58:33;20.60;59.10
58933;DHT22;44716;51.022;6.818;2024-03-25T02:00:59;20.60;59.20
58933;DHT22;44716;51.022;6.818;2024-03-25T02:03:26;20.60;59.20
58933;DHT22;44716;51.022;6.818;2024-03-25T02:05:57;20.50;59.20
58933;DHT22;44716;51.022;6.818;2024-03-25T02:08:23;20.60;59.20
58933;DHT22;44716;51.022;6.818;2024-03-25T02:10:49;20.60;59.10
58933;DHT22;44716;51.022;6.818;2024-03-25T02:13:15;20.60;59.20
58933;DHT22;44716;51.022;6.818;2024-03-25T02:15:41;20.60;59.10
58933;DHT22;44716;51.022;6.818;2024-03-25T02:18:06;20.60;59.20
58933;DHT22;44716;51.022;6.818;2024-03-25T02:20:32;20.50;59.10
58933;DHT22;44716;51.022;6.818;2024-03-25T02:22:57;20.50;59.10
58933;DHT22;44716;51.022;6.818;2024-03-25T02:25:23;20.50;59.10
58933;DHT22;44716;51.022;6.818;2024-03-25T02:27:49;20.50;59.20
58933;DHT22;44716;51.022;6.818;2024-03-25T02:30:15;20.50;59.10
58933;DHT22;44716;51.022;6.818;2024-03-25T02:32:41;20.50;59.20
58933;DHT22;44716;51.022;6.818;2024-03-25T02:35:07;20.50;59.10
58933;DHT22;44716;51.022;6.818;2024-03-25T02:37:33;20.50;59.20
58933;DHT22;44716;51.022;6.818;2024-03-25T02:39:59;20.50;59.20
58933;DHT22;44716;51.022;6.818;2024-03-25T02:42:26;20.50;59.20
58933;DHT22;44716;51.022;6.818;2024-03-25T02:44:52;20.50;59.20
58933;DHT22;44716;51.022;6.818;2024-03-25T02:47:18;20.50;59.20
58933;DHT22;44716;51.022;6.818;2024-03-25T02:49:45;20.50;59.30
58933;DHT22;44716;51.022;6.818;2024-03-25T02:52:11;20.50;59.20
58933;DHT22;44716;51.022;6.818;2024-03-25T02:54:36;20.40;59.20
58933;DHT22;44716;51.022;6.818;2024-03-25T02:57:02;20.40;59.20
58933;DHT22;44716;51.022;6.818;2024-03-25T02:59:27;20.50;59.20
58933;DHT22;44716;51.022;6.818;2024-03-25T03:01:53;20.40;59.20
58933;DHT22;44716;51.022;6.818;2024-03-25T03:04:18;20.40;59.20
58933;DHT22;44716;51.022;6.818;2024-03-25T03:06:44;20.40;59.20
58933;DHT22;44716;51.022;6.818;2024-03-25T03:09:09;20.40;59.20
58933;DHT22;44716;51.022;6.818;2024-03-25T03:11:35;20.40;59.20
58933;DHT22;44716;51.022;6.818;2024-03-25T03:14:01;20.40;59.20
58933;DHT22;44716;51.022;6.818;2024-03-25T03:16:26;20.40;59.20
58933;DHT22;44716;51.022;6.818;2024-03-25T03:18:52;20.40;59.20
58933;DHT22;44716;51.022;6.818;2024-03-25T03:21:17;20.40;59.30
58933;DHT22;44716;51.022;6.818;2024-03-25T03:23:43;20.40;59.30
58933;DHT22;44716;51.022;6.818;2024-03-25T03:26:08;20.40;59.30
58933;DHT22;44716;51.022;6.818;2024-03-25T03:28:34;20.40;59.30
58933;DHT22;44716;51.022;6.818;2024-03-25T03:30:59;20.40;59.30
58933;DHT22;44716;51.022;6.818;2024-03-25T03:33:25;20.40;59.30
58933;DHT22;44716;51.022;6.818;2024-03-25T03:35:51;20.40;59.20
58933;DHT22;44716;51.022;6.818;2024-03-25T03:38:17;20.40;59.20
58933;DHT22;44716;51.022;6.818;2024-03-25T03:40:42;20.40;59.30
58933;DHT22;44716;51.022;6.818;2024-03-25T03:43:07;20.40;59.30
58933;DHT22;44716;51.022;6.818;2024-03-25T03:45:33;20.40;59.30
58933;DHT22;44716;51.022;6.818;2024-03-25T03:48:00;20.30;59.30
58933;DHT22;44716;51.022;6.818;2024-03-25T03:50:26;20.40;59.40
58933;DHT22;44716;51.022;6.818;2024-03-25T03:52:51;20.30;59.30
58933;DHT22;44716;51.022;6.818;2024-03-25T03:55:17;20.30;59.30
58933;DHT22;44716;51.022;6.818;2024-03-25T03:57:42;20.30;59.40
58933;DHT22;44716;51.022;6.818;2024-03-25T04:00:08;20.30;59.40
58933;DHT22;44716;51.022;6.818;2024-03-25T04:02:34;20.30;59.30
58933;DHT22;44716;51.022;6.818;2024-03-25T04:05:00;20.30;59.40
58933;DHT22;44716;51.022;6.818;2024-03-25T04:07:25;20.30;59.70
58933;DHT22;44716;51.022;6.818;2024-03-25T04:09:54;20.30;59.50
58933;DHT22;44716;51.022;6.818;2024-03-25T04:12:19;20.30;59.60
58933;DHT22;44716;51.022;6.818;2024-03-25T04:14:48;20.30;59.40
58933;DHT22;44716;51.022;6.818;2024-03-25T04:17:14;20.30;59.60
58933;DHT22;44716;51.022;6.818;2024-03-25T04:19:40;20.30;59.40
58933;DHT22;44716;51.022;6.818;2024-03-25T04:22:05;20.30;59.50
58933;DHT22;44716;51.022;6.818;2024-03-25T04:24:32;20.30;59.50
58933;DHT22;44716;51.022;6.818;2024-03-25T04:26:59;20.30;59.60
58933;DHT22;44716;51.022;6.818;2024-03-25T04:29:25;20.30;59.50
58933;DHT22;44716;51.022;6.818;2024-03-25T04:31:50;20.30;59.50
58933;DHT22;44716;51.022;6.818;2024-03-25T04:34:16;20.30;59.50
58933;DHT22;44716;51.022;6.818;2024-03-25T04:36:42;20.30;59.50
58933;DHT22;44716;51.022;6.818;2024-03-25T04:39:07;20.30;59.50
58933;DHT22;44716;51.022;6.818;2024-03-25T04:41:33;20.30;59.50
58933;DHT22;44716;51.022;6.818;2024-03-25T04:43:59;20.20;59.50
58933;DHT22;44716;51.022;6.818;2024-03-25T04:46:24;20.20;59.40
58933;DHT22;44716;51.022;6.818;2024-03-25T04:48:50;20.20;59.60
58933;DHT22;44716;51.022;6.818;2024-03-25T04:51:15;20.20;59.60
58933;DHT22;44716;51.022;6.818;2024-03-25T04:53:41;20.20;59.60
58933;DHT22;44716;51.022;6.818;2024-03-25T04:56:06;20.20;59.50
58933;DHT22;44716;51.022;6.818;2024-03-25T04:58:32;20.20;59.50
58933;DHT22;44716;51.022;6.818;2024-03-25T05:00:57;20.20;59.40
58933;DHT22;44716;51.022;6.818;2024-03-25T05:03:23;20.20;59.40
58933;DHT22;44716;51.022;6.818;2024-03-25T05:05:48;20.20;59.50
58933;DHT22;44716;51.022;6.818;2024-03-25T05:08:14;20.20;59.50
58933;DHT22;44716;51.022;6.818;2024-03-25T05:10:39;20.20;59.60
58933;DHT22;44716;51.022;6.818;2024-03-25T05:13:05;20.20;59.50
58933;DHT22;44716;51.022;6.818;2024-03-25T05:15:30;20.20;59.40
58933;DHT22;44716;51.022;6.818;2024-03-25T05:17:56;20.20;59.60
58933;DHT22;44716;51.022;6.818;2024-03-25T05:20:21;20.20;59.60
58933;DHT22;44716;51.022;6.818;2024-03-25T05:22:47;20.20;59.70
58933;DHT22;44716;51.022;6.818;2024-03-25T05:25:12;20.20;59.60
58933;DHT22;44716;51.022;6.818;2024-03-25T05:27:38;20.20;59.60
58933;DHT22;44716;51.022;6.818;2024-03-25T05:30:03;20.20;59.50
58933;DHT22;44716;51.022;6.818;2024-03-25T05:32:29;20.20;59.60
58933;DHT22;44716;51.022;6.818;2024-03-25T05:34:54;20.20;59.50
58933;DHT22;44716;51.022;6.818;2024-03-25T05:37:20;20.20;59.50
58933;DHT22;44716;51.022;6.818;2024-03-25T05:39:45;20.10;59.50
58933;DHT22;44716;51.022;6.818;2024-03-25T05:42:11;20.10;59.50
58933;DHT22;44716;51.022;6.818;2024-03-25T05:44:36;20.20;59.60
58933;DHT22;44716;51.022;6.818;2024-03-25T05:47:02;20.10;59.80
58933;DHT22;44716;51.022;6.818;2024-03-25T05:49:28;20.10;59.90
58933;DHT22;44716;51.022;6.818;2024-03-25T05:51:53;20.10;60.20
58933;DHT22;44716;51.022;6.818;2024-03-25T05:54:18;20.10;60.30
58933;DHT22;44716;51.022;6.818;2024-03-25T05:56:44;20.20;60.40
58933;DHT22;44716;51.022;6.818;2024-03-25T05:59:09;20.20;60.50
58933;DHT22;44716;51.022;6.818;2024-03-25T06:01:35;20.20;60.10
58933;DHT22;44716;51.022;6.818;2024-03-25T06:04:03;20.20;60.10
58933;DHT22;44716;51.022;6.818;2024-03-25T06:06:28;20.30;60.10
58933;DHT22;44716;51.022;6.818;2024-03-25T06:08:54;20.30;60.10
58933;DHT22;44716;51.022;6.818;2024-03-25T06:11:19;20.30;60.00
58933;DHT22;44716;51.022;6.818;2024-03-25T06:13:47;20.30;60.10
58933;DHT22;44716;51.022;6.818;2024-03-25T06:16:13;20.40;60.30
58933;DHT22;44716;51.022;6.818;2024-03-25T06:18:39;20.30;60.30
58933;DHT22;44716;51.022;6.818;2024-03-25T06:21:05;20.40;60.10
58933;DHT22;44716;51.022;6.818;2024-03-25T06:23:31;20.40;60.10
58933;DHT22;44716;51.022;6.818;2024-03-25T06:25:57;20.30;60.40
58933;DHT22;44716;51.022;6.818;2024-03-25T06:28:22;20.30;60.40
58933;DHT22;44716;51.022;6.818;2024-03-25T06:30:49;20.40;60.30
58933;DHT22;44716;51.022;6.818;2024-03-25T06:33:33;20.30;60.40
58933;DHT22;44716;51.022;6.818;2024-03-25T06:36:17;20.40;60.30
58933;DHT22;44716;51.022;6.818;2024-03-25T06:38:43;20.30;60.40
58933;DHT22;44716;51.022;6.818;2024-03-25T06:41:09;20.40;60.40
58933;DHT22;44716;51.022;6.818;2024-03-25T06:43:35;20.40;60.60
58933;DHT22;44716;51.022;6.818;2024-03-25T06:46:01;20.40;60.10
58933;DHT22;44716;51.022;6.818;2024-03-25T06:48:26;20.40;60.10
58933;DHT22;44716;51.022;6.818;2024-03-25T06:51:01;20.40;60.30
58933;DHT22;44716;51.022;6.818;2024-03-25T06:53:28;20.40;60.10
58933;DHT22;44716;51.022;6.818;2024-03-25T06:55:54;20.40;60.10
58933;DHT22;44716;51.022;6.818;2024-03-25T06:58:20;20.40;60.10
58933;DHT22;44716;51.022;6.818;2024-03-25T07:00:46;20.40;60.10
58933;DHT22;44716;51.022;6.818;2024-03-25T07:03:13;20.40;60.30
58933;DHT22;44716;51.022;6.818;2024-03-25T07:05:39;20.40;60.40
58933;DHT22;44716;51.022;6.818;2024-03-25T07:08:04;20.50;60.90
58933;DHT22;44716;51.022;6.818;2024-03-25T07:10:30;20.50;60.60
58933;DHT22;44716;51.022;6.818;2024-03-25T07:12:56;20.50;60.30
58933;DHT22;44716;51.022;6.818;2024-03-25T07:15:21;20.50;60.50
58933;DHT22;44716;51.022;6.818;2024-03-25T07:17:47;20.60;60.70
58933;DHT22;44716;51.022;6.818;2024-03-25T07:20:12;20.60;60.60
58933;DHT22;44716;51.022;6.818;2024-03-25T07:22:38;20.60;60.50
58933;DHT22;44716;51.022;6.818;2024-03-25T07:25:04;20.60;60.40
58933;DHT22;44716;51.022;6.818;2024-03-25T07:27:29;20.50;60.50
58933;DHT22;44716;51.022;6.818;2024-03-25T07:29:55;20.50;60.50
58933;DHT22;44716;51.022;6.818;2024-03-25T07:32:20;20.50;61.40
58933;DHT22;44716;51.022;6.818;2024-03-25T07:34:46;20.60;60.70
58933;DHT22;44716;51.022;6.818;2024-03-25T07:37:11;20.60;60.60
58933;DHT22;44716;51.022;6.818;2024-03-25T07:39:36;20.50;60.40
58933;DHT22;44716;51.022;6.818;2024-03-25T07:42:02;20.60;60.60
58933;DHT22;44716;51.022;6.818;2024-03-25T07:44:28;20.60;60.70
58933;DHT22;44716;51.022;6.818;2024-03-25T07:46:53;20.60;60.70
58933;DHT22;44716;51.022;6.818;2024-03-25T07:49:20;20.60;60.50
58933;DHT22;44716;51.022;6.818;2024-03-25T07:51:46;20.60;60.60
58933;DHT22;44716;51.022;6.818;2024-03-25T07:54:11;20.60;60.60
58933;DHT22;44716;51.022;6.818;2024-03-25T07:56:39;20.60;60.70
58933;DHT22;44716;51.022;6.818;2024-03-25T07:59:05;20.60;60.50
58933;DHT22;44716;51.022;6.818;2024-03-25T08:01:30;20.60;60.80
58933;DHT22;44716;51.022;6.818;2024-03-25T08:03:55;20.60;60.80
58933;DHT22;44716;51.022;6.818;2024-03-25T08:06:21;20.60;61.00
58933;DHT22;44716;51.022;6.818;2024-03-25T08:08:47;20.60;61.00
58933;DHT22;44716;51.022;6.818;2024-03-25T08:11:12;20.60;60.90
58933;DHT22;44716;51.022;6.818;2024-03-25T08:13:38;20.60;61.00
58933;DHT22;44716;51.022;6.818;2024-03-25T08:16:03;20.60;61.20
58933;DHT22;44716;51.022;6.818;2024-03-25T08:18:29;20.60;61.00
58933;DHT22;44716;51.022;6.818;2024-03-25T08:20:54;20.60;61.70
58933;DHT22;44716;51.022;6.818;2024-03-25T08:23:20;20.60;61.50
58933;DHT22;44716;51.022;6.818;2024-03-25T08:25:45;20.60;61.30
58933;DHT22;44716;51.022;6.818;2024-03-25T08:28:11;20.60;61.30
58933;DHT22;44716;51.022;6.818;2024-03-25T08:30:36;20.60;61.60
58933;DHT22;44716;51.022;6.818;2024-03-25T08:33:02;20.60;61.50
58933;DHT22;44716;51.022;6.818;2024-03-25T08:35:27;20.60;61.20
58933;DHT22;44716;51.022;6.818;2024-03-25T08:37:53;20.60;61.20
58933;DHT22;44716;51.022;6.818;2024-03-25T08:40:18;20.60;61.00
58933;DHT22;44716;51.022;6.818;2024-03-25T08:42:44;20.60;61.00
58933;DHT22;44716;51.022;6.818;2024-03-25T08:45:09;20.60;61.30
58933;DHT22;44716;51.022;6.818;2024-03-25T08:47:35;20.60;61.20
58933;DHT22;44716;51.022;6.818;2024-03-25T08:50:01;20.60;61.00
58933;DHT22;44716;51.022;6.818;2024-03-25T08:52:26;20.60;61.00
58933;DHT22;44716;51.022;6.818;2024-03-25T08:54:52;20.60;60.90
58933;DHT22;44716;51.022;6.818;2024-03-25T08:57:17;20.60;60.80
58933;DHT22;44716;51.022;6.818;2024-03-25T08:59:43;20.60;61.20
58933;DHT22;44716;51.022;6.818;2024-03-25T09:02:08;20.60;61.20
58933;DHT22;44716;51.022;6.818;2024-03-25T09:04:34;20.60;61.00
58933;DHT22;44716;51.022;6.818;2024-03-25T09:06:59;20.60;61.00
58933;DHT22;44716;51.022;6.818;2024-03-25T09:09:25;20.60;60.70
58933;DHT22;44716;51.022;6.818;2024-03-25T09:12:08;20.60;60.80
58933;DHT22;44716;51.022;6.818;2024-03-25T09:14:34;20.60;60.70
58933;DHT22;44716;51.022;6.818;2024-03-25T09:16:59;20.60;60.50
58933;DHT22;44716;51.022;6.818;2024-03-25T09:19:25;20.60;60.50
58933;DHT22;44716;51.022;6.818;2024-03-25T09:21:51;20.60;60.70
58933;DHT22;44716;51.022;6.818;2024-03-25T09:24:16;20.50;60.60
58933;DHT22;44716;51.022;6.818;2024-03-25T09:26:43;20.50;60.60
58933;DHT22;44716;51.022;6.818;2024-03-25T09:29:08;20.50;60.60
58933;DHT22;44716;51.022;6.818;2024-03-25T09:31:34;20.50;60.50
58933;DHT22;44716;51.022;6.818;2024-03-25T09:33:59;20.50;60.60
58933;DHT22;44716;51.022;6.818;2024-03-25T09:36:25;20.50;60.50
58933;DHT22;44716;51.022;6.818;2024-03-25T09:38:50;20.50;60.50
58933;DHT22;44716;51.022;6.818;2024-03-25T09:41:18;20.50;60.50
58933;DHT22;44716;51.022;6.818;2024-03-25T09:43:44;20.50;60.60
58933;DHT22;44716;51.022;6.818;2024-03-25T09:46:11;20.50;60.70
58933;DHT22;44716;51.022;6.818;2024-03-25T09:48:36;20.50;60.70
58933;DHT22;44716;51.022;6.818;2024-03-25T09:51:03;20.50;61.40
58933;DHT22;44716;51.022;6.818;2024-03-25T09:53:29;20.50;60.50
58933;DHT22;44716;51.022;6.818;2024-03-25T09:55:55;20.50;60.50
58933;DHT22;44716;51.022;6.818;2024-03-25T09:58:21;20.50;60.40
58933;DHT22;44716;51.022;6.818;2024-03-25T10:00:47;20.50;60.40
58933;DHT22;44716;51.022;6.818;2024-03-25T10:03:13;20.50;60.40
58933;DHT22;44716;51.022;6.818;2024-03-25T10:05:39;20.50;60.50
58933;DHT22;44716;51.022;6.818;2024-03-25T10:08:05;20.50;60.40
58933;DHT22;44716;51.022;6.818;2024-03-25T10:10:31;20.50;60.30
58933;DHT22;44716;51.022;6.818;2024-03-25T10:12:58;20.50;60.30
58933;DHT22;44716;51.022;6.818;2024-03-25T10:15:24;20.50;60.30
58933;DHT22;44716;51.022;6.818;2024-03-25T10:17:49;20.50;60.30
58933;DHT22;44716;51.022;6.818;2024-03-25T10:20:15;20.50;60.20
58933;DHT22;44716;51.022;6.818;2024-03-25T10:22:41;20.50;60.20
58933;DHT22;44716;51.022;6.818;2024-03-25T10:25:07;20.50;60.20
58933;DHT22;44716;51.022;6.818;2024-03-25T10:27:33;20.50;60.20
58933;DHT22;44716;51.022;6.818;2024-03-25T10:29:58;20.50;60.20
58933;DHT22;44716;51.022;6.818;2024-03-25T10:32:24;20.50;60.10
58933;DHT22;44716;51.022;6.818;2024-03-25T10:34:50;20.50;60.10
58933;DHT22;44716;51.022;6.818;2024-03-25T10:37:16;20.50;60.20
58933;DHT22;44716;51.022;6.818;2024-03-25T10:39:49;20.50;60.20
58933;DHT22;44716;51.022;6.818;2024-03-25T10:42:18;20.50;60.10
58933;DHT22;44716;51.022;6.818;2024-03-25T10:44:44;20.50;60.10
58933;DHT22;44716;51.022;6.818;2024-03-25T10:47:10;20.50;60.20
58933;DHT22;44716;51.022;6.818;2024-03-25T10:49:49;20.50;60.20
58933;DHT22;44716;51.022;6.818;2024-03-25T10:52:15;20.50;60.20
58933;DHT22;44716;51.022;6.818;2024-03-25T10:54:42;20.50;60.20
58933;DHT22;44716;51.022;6.818;2024-03-25T10:57:08;20.50;60.10
58933;DHT22;44716;51.022;6.818;2024-03-25T10:59:35;20.50;60.10
58933;DHT22;44716;51.022;6.818;2024-03-25T11:02:05;20.50;60.20
58933;DHT22;44716;51.022;6.818;2024-03-25T11:04:30;20.40;60.10
58933;DHT22;44716;51.022;6.818;2024-03-25T11:07:06;20.40;60.30
58933;DHT22;44716;51.022;6.818;2024-03-25T11:09:31;20.40;60.20
58933;DHT22;44716;51.022;6.818;2024-03-25T11:11:57;20.50;60.20
58933;DHT22;44716;51.022;6.818;2024-03-25T11:14:26;20.50;60.30
58933;DHT22;44716;51.022;6.818;2024-03-25T11:16:53;20.50;60.20
58933;DHT22;44716;51.022;6.818;2024-03-25T11:19:20;20.40;60.20
58933;DHT22;44716;51.022;6.818;2024-03-25T11:21:46;20.40;60.10
58933;DHT22;44716;51.022;6.818;2024-03-25T11:24:12;20.40;60.10
58933;DHT22;44716;51.022;6.818;2024-03-25T11:26:43;20.40;60.10
58933;DHT22;44716;51.022;6.818;2024-03-25T11:29:09;20.40;60.10
58933;DHT22;44716;51.022;6.818;2024-03-25T11:31:34;20.40;60.10
58933;DHT22;44716;51.022;6.818;2024-03-25T11:34:03;20.40;60.50
58933;DHT22;44716;51.022;6.818;2024-03-25T11:36:29;20.40;60.10
58933;DHT22;44716;51.022;6.818;2024-03-25T11:39:02;20.40;60.30
58933;DHT22;44716;51.022;6.818;2024-03-25T11:41:35;20.40;60.10
58933;DHT22;44716;51.022;6.818;2024-03-25T11:44:04;20.40;60.10
58933;DHT22;44716;51.022;6.818;2024-03-25T11:46:29;20.40;60.10
58933;DHT22;44716;51.022;6.818;2024-03-25T11:48:55;20.40;60.20
58933;DHT22;44716;51.022;6.818;2024-03-25T11:51:21;20.40;60.10
58933;DHT22;44716;51.022;6.818;2024-03-25T11:53:46;20.40;60.10
58933;DHT22;44716;51.022;6.818;2024-03-25T11:56:12;20.40;60.00
58933;DHT22;44716;51.022;6.818;2024-03-25T11:58:38;20.40;59.90
58933;DHT22;44716;51.022;6.818;2024-03-25T12:01:04;20.40;60.10
58933;DHT22;44716;51.022;6.818;2024-03-25T12:03:30;20.40;60.00
58933;DHT22;44716;51.022;6.818;2024-03-25T12:05:56;20.40;60.10
58933;DHT22;44716;51.022;6.818;2024-03-25T12:08:22;20.40;60.10
58933;DHT22;44716;51.022;6.818;2024-03-25T12:10:51;20.40;60.10
58933;DHT22;44716;51.022;6.818;2024-03-25T12:13:35;20.30;60.10
58933;DHT22;44716;51.022;6.818;2024-03-25T12:16:01;20.30;60.10
58933;DHT22;44716;51.022;6.818;2024-03-25T12:18:27;20.40;60.20
58933;DHT22;44716;51.022;6.818;2024-03-25T12:20:53;20.40;60.20
58933;DHT22;44716;51.022;6.818;2024-03-25T12:23:18;20.30;60.10
58933;DHT22;44716;51.022;6.818;2024-03-25T12:25:50;20.40;60.30
58933;DHT22;44716;51.022;6.818;2024-03-25T12:28:15;20.40;60.20
58933;DHT22;44716;51.022;6.818;2024-03-25T12:30:51;20.40;60.10
58933;DHT22;44716;51.022;6.818;2024-03-25T12:33:17;20.40;60.10
58933;DHT22;44716;51.022;6.818;2024-03-25T12:35:46;20.40;60.10
58933;DHT22;44716;51.022;6.818;2024-03-25T12:41:07;20.30;60.20
58933;DHT22;44716;51.022;6.818;2024-03-25T12:43:33;20.30;60.20
58933;DHT22;44716;51.022;6.818;2024-03-25T12:45:59;20.40;60.30
58933;DHT22;44716;51.022;6.818;2024-03-25T12:48:25;20.40;60.30
58933;DHT22;44716;51.022;6.818;2024-03-25T12:50:50;20.30;60.10
58933;DHT22;44716;51.022;6.818;2024-03-25T12:53:17;20.40;60.20
58933;DHT22;44716;51.022;6.818;2024-03-25T12:55:42;20.40;60.30
58933;DHT22;44716;51.022;6.818;2024-03-25T12:58:08;20.40;60.20
58933;DHT22;44716;51.022;6.818;2024-03-25T13:00:33;20.40;60.10
58933;DHT22;44716;51.022;6.818;2024-03-25T13:02:59;20.40;60.10
58933;DHT22;44716;51.022;6.818;2024-03-25T13:05:25;20.40;60.20
58933;DHT22;44716;51.022;6.818;2024-03-25T13:07:51;20.30;60.10
58933;DHT22;44716;51.022;6.818;2024-03-25T13:10:16;20.40;60.00
58933;DHT22;44716;51.022;6.818;2024-03-25T13:12:42;20.40;60.10
58933;DHT22;44716;51.022;6.818;2024-03-25T13:15:07;20.40;60.10
58933;DHT22;44716;51.022;6.818;2024-03-25T13:17:33;20.30;60.10
58933;DHT22;44716;51.022;6.818;2024-03-25T13:19:59;20.40;60.10
58933;DHT22;44716;51.022;6.818;2024-03-25T13:22:25;20.40;60.20
58933;DHT22;44716;51.022;6.818;2024-03-25T13:24:50;20.40;60.10
58933;DHT22;44716;51.022;6.818;2024-03-25T13:27:16;20.40;60.10
58933;DHT22;44716;51.022;6.818;2024-03-25T13:29:44;20.40;60.10
58933;DHT22;44716;51.022;6.818;2024-03-25T13:32:09;20.40;60.10
58933;DHT22;44716;51.022;6.818;2024-03-25T13:34:35;20.40;60.10
58933;DHT22;44716;51.022;6.818;2024-03-25T13:37:00;20.40;60.10
58933;DHT22;44716;51.022;6.818;2024-03-25T13:39:26;20.40;60.10
58933;DHT22;44716;51.022;6.818;2024-03-25T13:41:52;20.40;60.10
58933;DHT22;44716;51.022;6.818;2024-03-25T13:44:17;20.40;60.10
58933;DHT22;44716;51.022;6.818;2024-03-25T13:46:43;20.40;60.00
58933;DHT22;44716;51.022;6.818;2024-03-25T13:49:08;20.40;60.10
58933;DHT22;44716;51.022;6.818;2024-03-25T13:51:36;20.40;60.10
58933;DHT22;44716;51.022;6.818;2024-03-25T13:54:01;20.40;60.00
58933;DHT22;44716;51.022;6.818;2024-03-25T13:56:28;20.50;60.10
58933;DHT22;44716;51.022;6.818;2024-03-25T13:58:53;20.50;60.00
58933;DHT22;44716;51.022;6.818;2024-03-25T14:01:19;20.50;59.90
58933;DHT22;44716;51.022;6.818;2024-03-25T14:03:44;20.50;60.00
58933;DHT22;44716;51.022;6.818;2024-03-25T14:06:11;20.50;59.70
58933;DHT22;44716;51.022;6.818;2024-03-25T14:08:36;20.60;60.00
58933;DHT22;44716;51.022;6.818;2024-03-25T14:11:02;20.60;61.60
58933;DHT22;44716;51.022;6.818;2024-03-25T14:13:28;20.70;59.90
58933;DHT22;44716;51.022;6.818;2024-03-25T14:15:54;20.80;59.80
58933;DHT22;44716;51.022;6.818;2024-03-25T14:18:19;20.80;59.80
58933;DHT22;44716;51.022;6.818;2024-03-25T14:20:45;20.80;59.80
58933;DHT22;44716;51.022;6.818;2024-03-25T14:23:11;20.80;59.70
58933;DHT22;44716;51.022;6.818;2024-03-25T14:25:37;20.90;59.70
58933;DHT22;44716;51.022;6.818;2024-03-25T14:28:03;21.00;59.60
58933;DHT22;44716;51.022;6.818;2024-03-25T14:30:29;21.10;59.40
58933;DHT22;44716;51.022;6.818;2024-03-25T14:32:54;21.30;59.10
58933;DHT22;44716;51.022;6.818;2024-03-25T14:35:22;21.30;58.80
58933;DHT22;44716;51.022;6.818;2024-03-25T14:37:48;21.30;58.80
58933;DHT22;44716;51.022;6.818;2024-03-25T14:40:14;21.40;58.60
58933;DHT22;44716;51.022;6.818;2024-03-25T14:42:42;21.40;58.50
58933;DHT22;44716;51.022;6.818;2024-03-25T14:45:08;21.50;58.70
58933;DHT22;44716;51.022;6.818;2024-03-25T14:47:33;21.60;59.10
58933;DHT22;44716;51.022;6.818;2024-03-25T14:49:59;21.70;58.20
58933;DHT22;44716;51.022;6.818;2024-03-25T14:52:24;21.70;57.90
58933;DHT22;44716;51.022;6.818;2024-03-25T14:54:50;21.80;58.50
58933;DHT22;44716;51.022;6.818;2024-03-25T14:57:16;21.80;57.70
58933;DHT22;44716;51.022;6.818;2024-03-25T14:59:42;22.00;57.60
58933;DHT22;44716;51.022;6.818;2024-03-25T15:02:08;22.00;57.40
58933;DHT22;44716;51.022;6.818;2024-03-25T15:04:33;22.00;57.90
58933;DHT22;44716;51.022;6.818;2024-03-25T15:06:59;22.10;57.10
58933;DHT22;44716;51.022;6.818;2024-03-25T15:09:24;22.20;57.00
58933;DHT22;44716;51.022;6.818;2024-03-25T15:11:50;22.20;57.00
58933;DHT22;44716;51.022;6.818;2024-03-25T15:14:15;22.30;56.70
58933;DHT22;44716;51.022;6.818;2024-03-25T15:16:41;22.40;56.70
58933;DHT22;44716;51.022;6.818;2024-03-25T15:19:06;22.40;56.60
58933;DHT22;44716;51.022;6.818;2024-03-25T15:21:35;22.40;56.50
58933;DHT22;44716;51.022;6.818;2024-03-25T15:24:02;22.50;56.50
58933;DHT22;44716;51.022;6.818;2024-03-25T15:26:27;22.50;56.40